[2025-02-25 00:00:00, 2025-02-25 23:59:59] previous next
| time | temperature | air pressure | humidity | solar radiation | wind speed |
|---|---|---|---|---|---|
| 2025-02-25 07:59:12 | 9.0 | 1005.3 | 99.0 | 44.1 | 0.1 |
| 2025-02-25 08:19:14 | 10.3 | 1005.3 | 91.0 | 32.5 | 2.2 |
| 2025-02-25 08:39:13 | 11.4 | 1005.0 | 87.0 | 37.1 | 0.0 |
| 2025-02-25 08:59:13 | 13.3 | 1005.0 | 81.0 | 37.2 | 0.7 |
| 2025-02-25 09:19:13 | 13.7 | 1005.0 | 79.0 | 44.7 | 0.6 |
| 2025-02-25 09:39:13 | 13.7 | 1005.0 | 78.0 | 67.3 | 0.1 |
| 2025-02-25 09:59:13 | 11.2 | 1004.6 | 83.0 | 89.7 | 2.5 |
| 2025-02-25 10:19:13 | 11.5 | 1005.0 | 83.0 | 91.0 | 1.0 |
| 2025-02-25 10:39:13 | 12.7 | 1004.6 | 80.0 | 103.0 | 0.0 |
| 2025-02-25 10:59:13 | 11.2 | 1004.6 | 81.0 | 111.3 | 0.3 |
| 2025-02-25 11:19:13 | 11.2 | 1004.3 | 82.0 | 122.2 | 1.5 |
| 2025-02-25 11:39:13 | 12.0 | 1003.9 | 82.0 | 159.8 | 0.1 |
| 2025-02-25 11:59:13 | 11.8 | 1003.9 | 80.0 | 136.2 | 1.4 |
| 2025-02-25 12:23:17 | 12.2 | 1003.6 | 81.0 | 116.6 | 0.6 |
| 2025-02-25 12:43:17 | 11.9 | 1002.9 | 81.0 | 117.5 | 2.4 |
| 2025-02-25 13:03:17 | 12.0 | 1002.9 | 82.0 | 103.5 | 0.1 |
| 2025-02-25 13:23:18 | 11.9 | 1002.9 | 82.0 | 91.0 | 1.4 |
| 2025-02-25 13:43:16 | 12.0 | 1002.6 | 79.0 | 82.3 | 1.1 |
| 2025-02-25 14:05:28 | 12.2 | 1002.2 | 79.0 | 0.0 | 0.0 |
| 2025-02-25 14:29:25 | 12.2 | 1002.2 | 80.0 | 0.0 | 0.0 |
CSV export: /station/IWELLEN5/data?period=20250225T000000/20250225T235959&format=csv&tz=GMT